createdAt,value
2018-05-02T00:00:47.576Z,0
2018-05-02T00:01:47.961Z,0
2018-05-02T00:02:45.571Z,0
2018-05-02T00:03:45.678Z,0
2018-05-02T00:04:46.385Z,0
2018-05-02T00:05:45.580Z,0
2018-05-02T00:06:45.260Z,0
2018-05-02T00:07:45.390Z,0
2018-05-02T00:08:45.921Z,0
2018-05-02T00:09:46.890Z,0
2018-05-02T00:10:45.886Z,0
2018-05-02T00:11:46.155Z,0
2018-05-02T00:12:46.769Z,0
2018-05-02T00:13:46.573Z,0
2018-05-02T00:14:46.668Z,0
2018-05-02T00:15:46.803Z,0
2018-05-02T00:16:47.093Z,0
2018-05-02T00:17:47.793Z,0
2018-05-02T00:18:47.771Z,0
2018-05-02T00:19:47.825Z,0
2018-05-02T00:20:47.848Z,0
2018-05-02T00:21:47.335Z,0
2018-05-02T00:22:47.970Z,0
2018-05-02T00:23:48.056Z,0
2018-05-02T00:24:47.837Z,0
2018-05-02T00:25:48.757Z,0
2018-05-02T00:26:48.081Z,0
2018-05-02T00:27:48.370Z,0
2018-05-02T00:28:48.935Z,0
2018-05-02T00:29:48.138Z,0
2018-05-02T00:30:49.041Z,0
2018-05-02T00:31:48.973Z,0
2018-05-02T00:32:48.702Z,0
2018-05-02T00:33:48.611Z,0
2018-05-02T00:34:49.124Z,0
2018-05-02T00:35:49.217Z,0
2018-05-02T00:36:48.555Z,0
2018-05-02T00:37:48.816Z,0
2018-05-02T00:38:49.276Z,0
2018-05-02T00:39:48.529Z,0
2018-05-02T00:40:49.324Z,0
2018-05-02T00:41:49.669Z,0
2018-05-02T00:42:49.221Z,0
2018-05-02T00:43:49.639Z,0
2018-05-02T00:44:50.032Z,0
2018-05-02T00:45:50.011Z,0
2018-05-02T00:46:50.075Z,0
2018-05-02T00:47:49.839Z,0
2018-05-02T00:48:49.744Z,0
2018-05-02T00:49:50.318Z,0
2018-05-02T00:50:50.504Z,0
2018-05-02T00:51:51.189Z,0
2018-05-02T00:52:51.203Z,0
2018-05-02T00:53:50.436Z,0
2018-05-02T00:54:50.945Z,0
2018-05-02T00:55:51.348Z,0
2018-05-02T00:56:51.368Z,0
2018-05-02T00:57:51.385Z,0
2018-05-02T00:58:51.840Z,0
2018-05-02T00:59:51.853Z,0
2018-05-02T01:00:53.193Z,0
2018-05-02T01:01:55.859Z,0
2018-05-02T01:02:51.939Z,0
2018-05-02T01:03:51.699Z,0
2018-05-02T01:04:52.115Z,0
2018-05-02T01:05:52.336Z,0
2018-05-02T01:06:52.313Z,0
2018-05-02T01:07:53.126Z,0
2018-05-02T01:08:52.782Z,0
2018-05-02T01:09:53.219Z,0
2018-05-02T01:10:53.972Z,0
2018-05-02T01:11:53.773Z,0
2018-05-02T01:12:54.446Z,0
2018-05-02T01:13:54.455Z,0
2018-05-02T01:14:53.749Z,0
2018-05-02T01:15:54.332Z,0
2018-05-02T01:16:54.539Z,0
2018-05-02T01:17:54.570Z,0
2018-05-02T01:18:54.635Z,0
2018-05-02T01:19:54.341Z,0
2018-05-02T01:20:55.014Z,0
2018-05-02T01:21:54.772Z,0
2018-05-02T01:22:55.208Z,0
2018-05-02T01:23:56.372Z,0
2018-05-02T01:24:55.890Z,0
2018-05-02T01:25:55.913Z,0
2018-05-02T01:26:55.692Z,0
2018-05-02T01:27:55.822Z,0
2018-05-02T01:28:56.722Z,0
2018-05-02T01:29:56.399Z,0
2018-05-02T01:30:56.590Z,0
2018-05-02T01:31:57.428Z,0
2018-05-02T01:32:57.833Z,0
2018-05-02T01:33:57.660Z,0
2018-05-02T01:34:58.262Z,0
2018-05-02T01:35:58.255Z,0
2018-05-02T01:36:58.280Z,0
2018-05-02T01:37:59.107Z,0
2018-05-02T01:38:57.595Z,0
2018-05-02T01:39:57.790Z,0
2018-05-02T01:40:57.737Z,0
2018-05-02T01:41:57.515Z,0
2018-05-02T01:42:57.366Z,0
2018-05-02T01:43:57.482Z,0
2018-05-02T01:44:56.928Z,0
2018-05-02T01:45:57.363Z,0
2018-05-02T01:46:57.214Z,0
2018-05-02T01:47:58.087Z,0
2018-05-02T01:48:57.653Z,0
2018-05-02T01:49:57.919Z,0
2018-05-02T01:50:58.158Z,0
2018-05-02T01:51:58.339Z,0
2018-05-02T01:52:58.727Z,0
2018-05-02T01:53:58.597Z,0
2018-05-02T01:54:59.144Z,0
2018-05-02T01:55:59.299Z,0
2018-05-02T01:56:59.558Z,0
2018-05-02T01:57:59.416Z,0
2018-05-02T01:58:59.334Z,0
2018-05-02T01:59:59.818Z,0
2018-05-02T02:01:00.143Z,0
2018-05-02T02:02:01.786Z,0
2018-05-02T02:03:00.919Z,0
2018-05-02T02:04:01.335Z,0
2018-05-02T02:05:01.588Z,0
2018-05-02T02:06:01.290Z,0
2018-05-02T02:07:02.506Z,0
2018-05-02T02:08:02.192Z,0
2018-05-02T02:09:02.048Z,0
2018-05-02T02:10:02.423Z,0
2018-05-02T02:11:02.190Z,0
2018-05-02T02:12:02.614Z,0
2018-05-02T02:13:03.300Z,0
2018-05-02T02:14:03.661Z,0
2018-05-02T02:15:04.339Z,0
2018-05-02T02:16:03.403Z,0
2018-05-02T02:17:03.157Z,0
2018-05-02T02:18:03.587Z,0
2018-05-02T02:19:03.833Z,0
2018-05-02T02:20:03.334Z,0
2018-05-02T02:21:03.881Z,0
2018-05-02T02:22:03.754Z,0
2018-05-02T02:23:03.667Z,0
2018-05-02T02:24:04.454Z,0
2018-05-02T02:25:04.124Z,0
2018-05-02T02:26:04.785Z,0
2018-05-02T02:27:04.478Z,0
2018-05-02T02:28:04.407Z,0
2018-05-02T02:29:05.711Z,0
2018-05-02T02:30:05.126Z,0
2018-05-02T02:31:05.851Z,0
2018-05-02T02:32:05.345Z,0
2018-05-02T02:33:05.079Z,0
2018-05-02T02:34:06.096Z,0
2018-05-02T02:35:05.966Z,0
2018-05-02T02:36:06.192Z,0
2018-05-02T02:37:06.330Z,0
2018-05-02T02:38:05.518Z,0
2018-05-02T02:39:05.664Z,0
2018-05-02T02:40:06.163Z,0
2018-05-02T02:41:06.978Z,0
2018-05-02T02:42:06.553Z,0
2018-05-02T02:43:06.174Z,0
2018-05-02T02:44:06.065Z,0
2018-05-02T02:45:06.495Z,0
2018-05-02T02:46:06.661Z,0
2018-05-02T02:47:06.707Z,0
2018-05-02T02:48:06.725Z,0
2018-05-02T02:49:06.187Z,0
2018-05-02T02:50:07.007Z,0
2018-05-02T02:51:07.791Z,0
2018-05-02T02:52:07.228Z,0
2018-05-02T02:53:07.522Z,0
2018-05-02T02:54:07.382Z,0
2018-05-02T02:55:07.153Z,0
2018-05-02T02:56:07.345Z,0
2018-05-02T02:57:07.587Z,0
2018-05-02T02:58:07.357Z,0
2018-05-02T02:59:08.030Z,0
2018-05-02T03:00:07.518Z,0
2018-05-02T04:00:13.374Z,30
2018-05-02T04:00:23.464Z,30
2018-05-02T04:01:23.885Z,30
2018-05-02T04:02:24.065Z,35
2018-05-02T04:03:24.076Z,35
2018-05-02T04:04:24.082Z,35
2018-05-02T04:05:24.752Z,35
2018-05-02T04:06:24.498Z,40
2018-05-02T04:07:24.880Z,40
2018-05-02T04:08:25.531Z,40
2018-05-02T04:09:25.309Z,40
2018-05-02T04:10:26.003Z,40
2018-05-02T04:11:25.884Z,45
2018-05-02T04:12:26.542Z,45
2018-05-02T04:13:26.410Z,45
2018-05-02T04:14:26.831Z,50
2018-05-02T04:15:27.235Z,50
2018-05-02T04:16:27.372Z,50
2018-05-02T04:17:28.107Z,55
2018-05-02T04:18:27.265Z,55
2018-05-02T04:19:27.578Z,60
2018-05-02T04:20:27.977Z,60
2018-05-02T04:21:28.382Z,60
2018-05-02T04:22:28.267Z,65
2018-05-02T04:23:28.126Z,65
2018-05-02T04:24:29.004Z,65
2018-05-02T04:25:28.731Z,65
2018-05-02T04:26:29.672Z,65
2018-05-02T04:27:29.770Z,65
2018-05-02T04:28:29.548Z,65
2018-05-02T04:29:29.937Z,65
2018-05-02T04:30:30.038Z,70
2018-05-02T04:31:30.268Z,70
2018-05-02T04:32:30.022Z,70
2018-05-02T04:33:29.785Z,70
2018-05-02T04:34:31.978Z,70
2018-05-02T04:35:30.382Z,70
2018-05-02T04:36:30.887Z,70
2018-05-02T04:37:30.924Z,75
2018-05-02T04:38:30.174Z,75
2018-05-02T04:39:30.446Z,75
2018-05-02T04:40:31.100Z,75
2018-05-02T04:41:30.884Z,75
2018-05-02T04:42:31.046Z,75
2018-05-02T04:43:31.466Z,75
2018-05-02T04:44:31.384Z,75
2018-05-02T04:45:31.904Z,80
2018-05-02T04:46:32.024Z,80
2018-05-02T04:47:31.627Z,85
2018-05-02T04:48:32.181Z,85
2018-05-02T04:49:32.240Z,90
2018-05-02T04:50:33.236Z,95
2018-05-02T04:51:33.408Z,110
2018-05-02T04:52:33.121Z,125
2018-05-02T04:53:32.762Z,145
2018-05-02T04:54:33.007Z,160
2018-05-02T04:55:33.395Z,165
2018-05-02T04:56:33.597Z,170
2018-05-02T04:57:34.079Z,165
2018-05-02T04:58:33.993Z,155
2018-05-02T04:59:35.118Z,150
2018-05-02T05:00:34.813Z,150
2018-05-02T05:01:34.813Z,145
2018-05-02T05:02:35.103Z,140
2018-05-02T05:03:35.180Z,140
2018-05-02T05:04:34.849Z,140
2018-05-02T05:05:34.880Z,145
2018-05-02T05:06:35.266Z,150
2018-05-02T05:07:34.665Z,160
2018-05-02T05:08:35.475Z,170
2018-05-02T05:09:35.213Z,180
2018-05-02T05:10:34.611Z,195
2018-05-02T05:11:35.220Z,215
2018-05-02T05:12:35.728Z,220
2018-05-02T05:13:35.787Z,235
2018-05-02T05:14:35.824Z,265
2018-05-02T05:15:36.588Z,295
2018-05-02T05:16:37.417Z,265
2018-05-02T05:17:37.413Z,240
2018-05-02T05:18:37.122Z,255
2018-05-02T05:19:37.061Z,275
2018-05-02T05:20:37.305Z,270
2018-05-02T05:21:37.334Z,285
2018-05-02T05:22:37.904Z,305
2018-05-02T05:23:38.088Z,310
2018-05-02T05:24:37.394Z,335
2018-05-02T05:25:38.115Z,330
2018-05-02T05:26:38.361Z,325
2018-05-02T05:27:38.919Z,310
2018-05-02T05:28:38.693Z,345
2018-05-02T05:29:38.615Z,275
2018-05-02T05:30:39.074Z,260
2018-05-02T05:31:39.095Z,255
2018-05-02T05:32:39.104Z,250
2018-05-02T05:33:39.581Z,245
2018-05-02T05:34:39.608Z,240
2018-05-02T05:35:39.640Z,230
2018-05-02T05:36:39.904Z,230
2018-05-02T05:37:40.090Z,230
2018-05-02T05:38:40.289Z,235
2018-05-02T05:39:41.408Z,230
2018-05-02T05:40:39.967Z,235
2018-05-02T05:41:40.558Z,235
2018-05-02T05:42:40.523Z,235
2018-05-02T05:43:41.538Z,235
2018-05-02T05:44:41.415Z,250
2018-05-02T05:45:40.904Z,250
2018-05-02T05:46:41.375Z,255
2018-05-02T05:47:41.487Z,260
2018-05-02T05:48:41.728Z,270
2018-05-02T05:49:41.728Z,280
2018-05-02T05:50:41.920Z,290
2018-05-02T05:51:42.397Z,290
2018-05-02T05:52:42.136Z,305
2018-05-02T05:53:42.437Z,300
2018-05-02T05:54:43.037Z,305
2018-05-02T05:55:42.598Z,315
2018-05-02T05:56:42.909Z,320
2018-05-02T05:57:43.137Z,320
2018-05-02T05:58:43.629Z,335
2018-05-02T05:59:43.108Z,330
2018-05-02T06:00:46.846Z,335
2018-05-02T06:01:45.782Z,340
2018-05-02T06:02:43.184Z,345
2018-05-02T06:03:43.604Z,355
2018-05-02T06:04:43.736Z,370
2018-05-02T06:05:43.923Z,380
2018-05-02T06:06:44.167Z,390
2018-05-02T06:07:44.359Z,435
2018-05-02T06:08:45.014Z,435
2018-05-02T06:09:45.034Z,425
2018-05-02T06:10:45.233Z,415
2018-05-02T06:11:44.954Z,485
2018-05-02T06:12:45.379Z,455
2018-05-02T06:13:44.850Z,440
2018-05-02T06:14:45.600Z,455
2018-05-02T06:15:45.342Z,860
2018-05-02T06:16:45.752Z,480
2018-05-02T06:17:45.852Z,485
2018-05-02T06:18:46.059Z,480
2018-05-02T06:19:46.558Z,495
2018-05-02T06:20:46.695Z,465
2018-05-02T06:21:46.614Z,505
2018-05-02T06:22:47.403Z,465
2018-05-02T06:23:47.350Z,535
2018-05-02T06:24:47.447Z,490
2018-05-02T06:25:48.143Z,545
2018-05-02T06:26:47.847Z,495
2018-05-02T06:27:48.189Z,510
2018-05-02T06:28:48.202Z,525
2018-05-02T06:29:47.987Z,495
2018-05-02T06:30:48.450Z,495
2018-05-02T06:31:48.398Z,465
2018-05-02T06:32:49.109Z,465
2018-05-02T06:33:49.470Z,465
2018-05-02T06:34:49.260Z,480
2018-05-02T06:35:50.214Z,440
2018-05-02T06:36:49.772Z,465
2018-05-02T06:37:51.238Z,450
2018-05-02T06:38:50.325Z,510
2018-05-02T06:39:50.836Z,485
2018-05-02T06:40:51.591Z,490
2018-05-02T06:41:51.102Z,490
2018-05-02T06:42:51.837Z,495
2018-05-02T06:43:51.532Z,475
2018-05-02T06:44:51.375Z,490
2018-05-02T06:45:51.633Z,475
2018-05-02T06:46:51.166Z,485
2018-05-02T06:47:50.889Z,495
2018-05-02T06:48:51.431Z,500
2018-05-02T06:49:52.119Z,510
2018-05-02T06:50:51.869Z,505
2018-05-02T06:51:52.300Z,510
2018-05-02T06:52:52.740Z,500
2018-05-02T06:53:53.207Z,510
2018-05-02T06:54:53.243Z,540
2018-05-02T06:55:52.997Z,550
2018-05-02T06:56:53.734Z,610
2018-05-02T06:57:54.462Z,635
2018-05-02T06:58:53.762Z,610
2018-05-02T06:59:53.804Z,645
2018-05-02T07:00:56.596Z,690
2018-05-02T07:01:57.039Z,695
2018-05-02T07:02:53.334Z,715
2018-05-02T07:03:53.757Z,735
2018-05-02T07:04:54.235Z,700
2018-05-02T07:05:53.957Z,705
2018-05-02T07:06:54.482Z,760
2018-05-02T07:07:54.345Z,960
2018-05-02T07:08:54.556Z,1045
2018-05-02T07:09:54.401Z,805
2018-05-02T07:10:55.809Z,870
2018-05-02T07:11:55.062Z,880
2018-05-02T07:12:55.299Z,940
2018-05-02T07:13:55.396Z,1060
2018-05-02T07:14:55.929Z,880
2018-05-02T07:15:54.951Z,880
2018-05-02T07:16:55.549Z,885
2018-05-02T07:17:55.726Z,1035
2018-05-02T07:18:55.789Z,925
2018-05-02T07:19:55.787Z,1190
2018-05-02T07:20:56.453Z,970
2018-05-02T07:21:56.269Z,1440
2018-05-02T07:22:56.462Z,1505
2018-05-02T07:23:56.240Z,985
2018-05-02T07:24:57.337Z,1060
2018-05-02T07:25:56.431Z,950
2018-05-02T07:26:56.290Z,1220
2018-05-02T07:27:57.154Z,960
2018-05-02T07:28:56.959Z,940
2018-05-02T07:29:57.412Z,850
2018-05-02T07:30:57.978Z,835
2018-05-02T07:31:58.994Z,770
2018-05-02T07:33:00.295Z,875
2018-05-02T07:33:59.127Z,800
2018-05-02T07:34:59.013Z,780
2018-05-02T07:35:59.709Z,800
2018-05-02T07:36:58.948Z,815
2018-05-02T07:37:58.396Z,810
2018-05-02T07:38:59.591Z,1085
2018-05-02T07:39:59.430Z,910
2018-05-02T07:40:59.734Z,785
2018-05-02T07:42:00.557Z,980
2018-05-02T07:42:59.721Z,790
2018-05-02T07:43:59.441Z,960
2018-05-02T07:45:00.498Z,950
2018-05-02T07:45:59.668Z,970
2018-05-02T07:47:00.122Z,865
2018-05-02T07:48:00.930Z,860
2018-05-02T07:49:00.883Z,840
2018-05-02T07:50:00.861Z,805
2018-05-02T07:51:01.478Z,835
2018-05-02T07:52:01.049Z,960
2018-05-02T07:53:01.237Z,985
2018-05-02T07:54:00.514Z,745
2018-05-02T07:55:00.918Z,760
2018-05-02T07:56:01.965Z,825
2018-05-02T07:57:01.440Z,710
2018-05-02T07:58:02.716Z,705
2018-05-02T07:59:02.421Z,715
2018-05-02T08:00:03.183Z,735
2018-05-02T08:01:02.265Z,730
2018-05-02T08:02:02.368Z,740
2018-05-02T08:03:03.768Z,675
2018-05-02T08:04:02.822Z,645
2018-05-02T08:05:03.549Z,635
2018-05-02T08:06:04.991Z,660
2018-05-02T08:07:04.065Z,695
2018-05-02T08:08:04.322Z,785
2018-05-02T08:09:04.380Z,745
2018-05-02T08:10:05.172Z,720
2018-05-02T08:11:05.062Z,680
2018-05-02T08:12:04.316Z,710
2018-05-02T08:13:04.564Z,675
2018-05-02T08:14:05.344Z,685
2018-05-02T08:15:05.701Z,915
2018-05-02T08:16:05.698Z,755
2018-05-02T08:17:05.426Z,900
2018-05-02T08:18:05.657Z,770
2018-05-02T08:19:05.250Z,960
2018-05-02T08:20:05.371Z,850
2018-05-02T08:21:05.258Z,900
2018-05-02T08:22:07.023Z,900
2018-05-02T08:23:05.942Z,1280
2018-05-02T08:24:06.310Z,1040
2018-05-02T08:25:06.447Z,1185
2018-05-02T08:26:06.594Z,1170
2018-05-02T08:27:06.745Z,1110
2018-05-02T08:28:07.113Z,870
2018-05-02T08:29:07.821Z,940
2018-05-02T08:30:08.004Z,1170
2018-05-02T08:31:07.820Z,945
2018-05-02T08:32:08.004Z,2585
2018-05-02T08:33:09.173Z,1030
2018-05-02T08:34:08.981Z,1350
2018-05-02T08:35:09.055Z,1270
2018-05-02T08:36:09.103Z,1510
2018-05-02T08:37:08.672Z,1070
2018-05-02T08:38:09.161Z,1885
2018-05-02T08:39:09.958Z,1125
2018-05-02T08:40:09.778Z,800
2018-05-02T08:41:09.668Z,680
2018-05-02T08:42:10.514Z,595
2018-05-02T08:43:09.773Z,575
2018-05-02T08:44:10.552Z,570
2018-05-02T08:45:10.500Z,555
2018-05-02T08:46:10.418Z,550
2018-05-02T08:47:10.695Z,530
2018-05-02T08:48:11.458Z,520
2018-05-02T08:49:10.658Z,520
2018-05-02T08:50:11.289Z,550
2018-05-02T08:51:12.432Z,550
2018-05-02T08:52:11.972Z,515
2018-05-02T08:53:12.058Z,505
2018-05-02T08:54:12.278Z,510
2018-05-02T08:55:12.267Z,525
2018-05-02T08:56:12.000Z,520
2018-05-02T08:57:12.709Z,535
2018-05-02T08:58:12.429Z,470
2018-05-02T08:59:13.156Z,410
2018-05-02T09:00:17.984Z,385
2018-05-02T09:01:12.439Z,370
2018-05-02T09:02:12.748Z,385
2018-05-02T09:03:12.968Z,370
2018-05-02T09:04:12.987Z,355
2018-05-02T09:05:12.932Z,335
2018-05-02T09:06:13.074Z,325
2018-05-02T09:07:14.070Z,295
2018-05-02T09:08:13.485Z,285
2018-05-02T09:09:14.018Z,280
2018-05-02T09:10:13.420Z,285
2018-05-02T09:11:14.278Z,275
2018-05-02T09:12:14.532Z,265
2018-05-02T09:13:13.782Z,260
2018-05-02T09:14:14.073Z,250
2018-05-02T09:15:14.680Z,235
2018-05-02T09:16:14.483Z,250
2018-05-02T09:17:14.851Z,235
2018-05-02T09:18:15.523Z,245
2018-05-02T09:19:15.540Z,245
2018-05-02T09:20:15.328Z,230
2018-05-02T09:21:15.458Z,235
2018-05-02T09:22:15.599Z,220
2018-05-02T09:23:15.882Z,210
2018-05-02T09:24:15.987Z,210
2018-05-02T09:25:16.646Z,200
2018-05-02T09:26:16.834Z,190
2018-05-02T09:27:15.988Z,185
2018-05-02T09:28:16.972Z,195
2018-05-02T09:29:16.313Z,205
2018-05-02T09:30:16.755Z,190
2018-05-02T09:31:16.431Z,185
2018-05-02T09:32:16.862Z,165
2018-05-02T09:33:18.182Z,160
2018-05-02T09:34:17.077Z,165
2018-05-02T09:35:17.496Z,160
2018-05-02T09:36:17.619Z,155
2018-05-02T09:37:17.734Z,155
2018-05-02T09:38:17.444Z,150
2018-05-02T09:39:17.869Z,165
2018-05-02T09:40:18.646Z,150
2018-05-02T09:41:18.258Z,145
2018-05-02T09:42:18.413Z,150
2018-05-02T09:43:18.951Z,160
2018-05-02T09:44:19.019Z,160
2018-05-02T09:45:18.733Z,165
2018-05-02T09:46:18.357Z,170
2018-05-02T09:47:18.916Z,180
2018-05-02T09:48:19.100Z,185
2018-05-02T09:49:19.514Z,175
2018-05-02T09:50:19.638Z,185
2018-05-02T09:51:20.110Z,180
2018-05-02T09:52:19.954Z,185
2018-05-02T09:53:19.871Z,190
2018-05-02T09:54:20.491Z,190
2018-05-02T09:55:20.277Z,190
2018-05-02T09:56:20.549Z,190
2018-05-02T09:57:20.811Z,180
2018-05-02T09:58:20.979Z,190
2018-05-02T09:59:20.101Z,205
2018-05-02T10:00:20.112Z,215
2018-05-02T10:01:20.600Z,225
2018-05-02T10:02:20.775Z,230
2018-05-02T10:03:20.972Z,225
2018-05-02T10:04:21.166Z,230
2018-05-02T10:05:21.223Z,225
2018-05-02T10:06:21.907Z,220
2018-05-02T10:07:22.908Z,200
2018-05-02T10:08:22.567Z,215
2018-05-02T10:09:22.398Z,225
2018-05-02T10:10:22.670Z,250
2018-05-02T10:11:22.405Z,280
2018-05-02T10:12:22.774Z,285
2018-05-02T10:13:22.697Z,295
2018-05-02T10:14:22.736Z,295
2018-05-02T10:15:22.545Z,300
2018-05-02T10:16:22.527Z,285
2018-05-02T10:17:22.476Z,275
2018-05-02T10:18:22.777Z,270
2018-05-02T10:19:23.573Z,275
2018-05-02T10:20:23.543Z,295
2018-05-02T10:21:24.016Z,310
2018-05-02T10:22:23.760Z,305
2018-05-02T10:23:23.528Z,290
2018-05-02T10:24:23.599Z,290
2018-05-02T10:25:23.841Z,295
2018-05-02T10:26:24.525Z,290
2018-05-02T10:27:24.438Z,280
2018-05-02T10:28:24.166Z,260
2018-05-02T10:29:24.301Z,275
2018-05-02T10:30:23.975Z,295
2018-05-02T10:31:24.571Z,300
2018-05-02T10:32:24.527Z,310
2018-05-02T10:33:25.132Z,320
2018-05-02T10:34:25.197Z,310
2018-05-02T10:35:25.721Z,310
2018-05-02T10:36:26.465Z,310
2018-05-02T10:37:25.812Z,315
2018-05-02T10:38:25.670Z,325
2018-05-02T10:39:25.510Z,340
2018-05-02T10:40:25.594Z,350
2018-05-02T10:41:26.052Z,355
2018-05-02T10:42:26.115Z,365
2018-05-02T10:43:25.375Z,370
2018-05-02T10:44:26.157Z,375
2018-05-02T10:45:26.119Z,370
2018-05-02T10:46:26.129Z,385
2018-05-02T10:47:26.602Z,405
2018-05-02T10:48:26.887Z,425
2018-05-02T10:49:26.580Z,445
2018-05-02T10:50:27.458Z,440
2018-05-02T10:51:27.516Z,425
2018-05-02T10:52:28.192Z,410
2018-05-02T10:53:27.830Z,425
2018-05-02T10:54:27.723Z,465
2018-05-02T10:55:27.303Z,460
2018-05-02T10:56:27.110Z,445
2018-05-02T10:57:27.419Z,420
2018-05-02T10:58:28.019Z,380
2018-05-02T10:59:28.114Z,340
2018-05-02T11:00:28.248Z,315
2018-05-02T11:01:28.461Z,325
2018-05-02T11:02:28.019Z,345
2018-05-02T11:03:27.466Z,380
2018-05-02T11:04:28.477Z,380
2018-05-02T11:05:27.698Z,380
2018-05-02T11:06:28.253Z,375
2018-05-02T11:07:28.328Z,400
2018-05-02T11:08:29.077Z,380
2018-05-02T11:09:28.294Z,355
2018-05-02T11:10:29.066Z,350
2018-05-02T11:11:29.474Z,340
2018-05-02T11:12:28.836Z,330
2018-05-02T11:13:29.075Z,320
2018-05-02T11:14:29.436Z,305
2018-05-02T11:15:29.132Z,305
2018-05-02T11:16:29.078Z,300
2018-05-02T11:17:29.704Z,290
2018-05-02T11:18:30.180Z,300
2018-05-02T11:19:30.483Z,305
2018-05-02T11:20:29.684Z,290
2018-05-02T11:21:30.190Z,270
2018-05-02T11:22:30.666Z,240
2018-05-02T11:23:30.219Z,230
2018-05-02T11:24:30.691Z,230
2018-05-02T11:25:30.495Z,230
2018-05-02T11:26:30.840Z,220
2018-05-02T11:27:30.791Z,225
2018-05-02T11:28:31.143Z,240
2018-05-02T11:29:30.750Z,240
2018-05-02T11:30:31.658Z,245
2018-05-02T11:31:31.021Z,260
2018-05-02T11:32:31.681Z,230
2018-05-02T11:33:32.761Z,200
2018-05-02T11:34:31.825Z,195
2018-05-02T11:35:31.871Z,195
2018-05-02T11:36:31.900Z,200
2018-05-02T11:37:32.397Z,195
2018-05-02T11:38:32.796Z,185
2018-05-02T11:39:32.517Z,175
2018-05-02T11:40:32.277Z,175
2018-05-02T11:41:32.485Z,175
2018-05-02T11:42:33.044Z,185
2018-05-02T11:43:33.604Z,180
2018-05-02T11:44:33.317Z,185
2018-05-02T11:45:33.579Z,180
2018-05-02T11:46:34.006Z,185
2018-05-02T11:47:34.677Z,185
2018-05-02T11:48:33.410Z,175
2018-05-02T11:49:32.969Z,160
2018-05-02T11:50:33.833Z,150
2018-05-02T11:51:33.762Z,145
2018-05-02T11:52:33.793Z,135
2018-05-02T11:53:34.122Z,135
2018-05-02T11:54:33.465Z,130
2018-05-02T11:55:34.037Z,130
2018-05-02T11:56:34.113Z,135
2018-05-02T11:57:34.169Z,140
2018-05-02T11:58:33.888Z,150
2018-05-02T11:59:34.161Z,155
2018-05-02T12:00:37.325Z,155
2018-05-02T12:01:37.318Z,140
2018-05-02T12:02:34.914Z,150
2018-05-02T12:03:35.723Z,150
2018-05-02T12:04:35.425Z,150
2018-05-02T12:05:35.915Z,140
2018-05-02T12:06:36.306Z,150
2018-05-02T12:07:36.063Z,140
2018-05-02T12:08:36.491Z,145
2018-05-02T12:09:36.509Z,145
2018-05-02T12:10:36.969Z,145
2018-05-02T12:11:36.835Z,145
2018-05-02T12:12:37.418Z,145
2018-05-02T12:13:37.987Z,145
2018-05-02T12:14:37.732Z,135
2018-05-02T12:15:38.594Z,135
2018-05-02T12:16:37.938Z,130
2018-05-02T12:17:38.198Z,125
2018-05-02T12:18:38.732Z,120
2018-05-02T12:19:39.630Z,115
2018-05-02T12:20:39.887Z,115
2018-05-02T12:21:39.359Z,120
2018-05-02T12:22:39.618Z,120
2018-05-02T12:23:39.101Z,125
2018-05-02T12:24:39.821Z,120
2018-05-02T12:25:39.485Z,120
2018-05-02T12:26:39.956Z,125
2018-05-02T12:27:39.963Z,125
2018-05-02T12:28:40.290Z,135
2018-05-02T12:29:40.694Z,145
2018-05-02T12:30:40.725Z,160
2018-05-02T12:31:40.482Z,180
2018-05-02T12:32:40.984Z,190
2018-05-02T12:33:40.835Z,195
2018-05-02T12:34:40.435Z,200
2018-05-02T12:35:41.423Z,195
2018-05-02T12:36:41.377Z,190
2018-05-02T12:37:41.060Z,180
2018-05-02T12:38:40.686Z,180
2018-05-02T12:39:41.281Z,170
2018-05-02T12:40:41.793Z,180
2018-05-02T12:41:41.736Z,175
2018-05-02T12:42:42.134Z,160
2018-05-02T12:43:42.838Z,155
2018-05-02T12:44:42.854Z,145
2018-05-02T12:45:42.676Z,160
2018-05-02T12:46:42.739Z,175
2018-05-02T12:47:42.871Z,190
2018-05-02T12:48:43.572Z,200
2018-05-02T12:49:43.564Z,185
2018-05-02T12:50:42.825Z,160
2018-05-02T12:51:43.419Z,150
2018-05-02T12:52:43.979Z,140
2018-05-02T12:53:43.627Z,155
2018-05-02T12:54:44.381Z,145
2018-05-02T12:55:44.303Z,165
2018-05-02T12:56:44.461Z,170
2018-05-02T12:57:44.641Z,185
2018-05-02T12:58:45.058Z,210
2018-05-02T12:59:44.619Z,245
2018-05-02T13:00:47.429Z,275
2018-05-02T13:01:48.388Z,270
2018-05-02T13:02:44.885Z,270
2018-05-02T13:03:45.028Z,285
2018-05-02T13:04:45.927Z,325
2018-05-02T13:05:45.272Z,325
2018-05-02T13:06:45.808Z,315
2018-05-02T13:07:45.968Z,290
2018-05-02T13:08:46.408Z,260
2018-05-02T13:09:46.518Z,240
2018-05-02T13:10:46.232Z,235
2018-05-02T13:11:47.045Z,250
2018-05-02T13:12:46.484Z,250
2018-05-02T13:13:46.893Z,270
2018-05-02T13:14:46.651Z,275
2018-05-02T13:15:46.933Z,270
2018-05-02T13:16:47.112Z,270
2018-05-02T13:17:47.541Z,290
2018-05-02T13:18:48.240Z,320
2018-05-02T13:19:48.040Z,325
2018-05-02T13:20:47.821Z,340
2018-05-02T13:21:48.284Z,330
2018-05-02T13:22:47.851Z,290
2018-05-02T13:23:48.087Z,265
2018-05-02T13:24:48.228Z,275
2018-05-02T13:25:49.149Z,275
2018-05-02T13:26:48.773Z,280
2018-05-02T13:27:48.622Z,285
2018-05-02T13:28:48.710Z,310
2018-05-02T13:29:49.374Z,335
2018-05-02T13:30:48.974Z,330
2018-05-02T13:31:49.521Z,365
2018-05-02T13:32:50.272Z,355
2018-05-02T13:33:50.730Z,370
2018-05-02T13:34:51.127Z,335
2018-05-02T13:35:51.076Z,315
2018-05-02T13:36:50.941Z,310
2018-05-02T13:37:51.302Z,305
2018-05-02T13:38:51.479Z,315
2018-05-02T13:39:51.919Z,325
2018-05-02T13:40:52.555Z,310
2018-05-02T13:41:52.396Z,315
2018-05-02T13:42:52.594Z,305
2018-05-02T13:43:53.021Z,305
2018-05-02T13:44:52.086Z,305
2018-05-02T13:45:52.355Z,305
2018-05-02T13:46:52.895Z,305
2018-05-02T13:47:52.686Z,310
2018-05-02T13:48:52.823Z,325
2018-05-02T13:49:52.951Z,340
2018-05-02T13:50:53.273Z,335
2018-05-02T13:51:53.703Z,325
2018-05-02T13:52:54.389Z,345
2018-05-02T13:53:54.191Z,350
2018-05-02T13:54:54.408Z,330
2018-05-02T13:55:53.892Z,330
2018-05-02T13:56:56.035Z,330
2018-05-02T13:57:55.648Z,315
2018-05-02T13:58:54.491Z,305
2018-05-02T13:59:55.285Z,305
2018-05-02T14:00:56.295Z,290
2018-05-02T14:01:56.642Z,270
2018-05-02T14:02:55.226Z,245
2018-05-02T14:03:55.811Z,240
2018-05-02T14:04:56.535Z,225
2018-05-02T14:05:55.620Z,220
2018-05-02T14:06:56.368Z,195
2018-05-02T14:07:55.945Z,185
2018-05-02T14:08:55.926Z,195
2018-05-02T14:09:56.163Z,195
2018-05-02T14:10:57.652Z,190
2018-05-02T14:11:57.174Z,200
2018-05-02T14:12:57.896Z,210
2018-05-02T14:13:57.663Z,210
2018-05-02T14:14:56.940Z,225
2018-05-02T14:15:58.251Z,240
2018-05-02T14:16:57.379Z,240
2018-05-02T14:17:57.293Z,260
2018-05-02T14:18:57.909Z,245
2018-05-02T14:19:57.490Z,255
2018-05-02T14:20:57.645Z,240
2018-05-02T14:21:57.784Z,235
2018-05-02T14:22:58.226Z,240
2018-05-02T14:23:58.665Z,240
2018-05-02T14:24:59.318Z,255
2018-05-02T14:25:58.965Z,255
2018-05-02T14:26:59.757Z,245
2018-05-02T14:27:59.974Z,225
2018-05-02T14:28:59.039Z,220
2018-05-02T14:29:59.481Z,220
2018-05-02T14:30:59.357Z,210
2018-05-02T14:32:00.214Z,220
2018-05-02T14:33:00.442Z,220
2018-05-02T14:33:59.819Z,220
2018-05-02T14:34:59.676Z,215
2018-05-02T14:36:00.314Z,205
2018-05-02T14:36:59.791Z,210
2018-05-02T14:38:00.451Z,200
2018-05-02T14:39:00.198Z,205
2018-05-02T14:40:01.115Z,205
2018-05-02T14:41:00.743Z,195
2018-05-02T14:42:00.707Z,190
2018-05-02T14:43:01.649Z,200
2018-05-02T14:44:02.073Z,200
2018-05-02T14:45:01.846Z,200
2018-05-02T14:46:03.760Z,215
2018-05-02T14:47:01.655Z,225
2018-05-02T14:48:01.799Z,240
2018-05-02T14:49:02.044Z,260
2018-05-02T14:50:01.479Z,240
2018-05-02T14:51:01.287Z,240
2018-05-02T14:52:01.532Z,230
2018-05-02T14:53:01.849Z,215
2018-05-02T14:54:02.979Z,210
2018-05-02T14:55:02.582Z,205
2018-05-02T14:56:02.889Z,205
2018-05-02T14:57:02.447Z,205
2018-05-02T14:58:03.115Z,195
2018-05-02T14:59:02.246Z,205
2018-05-02T15:00:15.816Z,200